sensor_id;sensor_type;location;lat;lon;timestamp;P1;durP1;ratioP1;P2;durP2;ratioP2
29662;SDS011;16578;53.266;7.920;2022-12-20T00:01:15;9.77;;;6.00;;
29662;SDS011;16578;53.266;7.920;2022-12-20T00:03:43;7.53;;;5.55;;
29662;SDS011;16578;53.266;7.920;2022-12-20T00:06:09;7.88;;;5.53;;
29662;SDS011;16578;53.266;7.920;2022-12-20T00:08:36;7.43;;;5.57;;
29662;SDS011;16578;53.266;7.920;2022-12-20T00:11:03;7.68;;;6.05;;
29662;SDS011;16578;53.266;7.920;2022-12-20T00:13:31;8.85;;;5.55;;
29662;SDS011;16578;53.266;7.920;2022-12-20T00:16:06;10.73;;;6.10;;
29662;SDS011;16578;53.266;7.920;2022-12-20T00:18:32;6.50;;;5.30;;
29662;SDS011;16578;53.266;7.920;2022-12-20T00:20:59;8.77;;;6.18;;
29662;SDS011;16578;53.266;7.920;2022-12-20T00:23:26;7.18;;;5.57;;
29662;SDS011;16578;53.266;7.920;2022-12-20T00:25:58;8.77;;;5.55;;
29662;SDS011;16578;53.266;7.920;2022-12-20T00:28:31;8.87;;;6.23;;
29662;SDS011;16578;53.266;7.920;2022-12-20T00:30:58;6.68;;;5.03;;
29662;SDS011;16578;53.266;7.920;2022-12-20T00:33:23;8.73;;;5.75;;
29662;SDS011;16578;53.266;7.920;2022-12-20T00:35:49;6.00;;;4.95;;
29662;SDS011;16578;53.266;7.920;2022-12-20T00:38:15;6.05;;;5.22;;
29662;SDS011;16578;53.266;7.920;2022-12-20T00:40:41;6.38;;;5.22;;
29662;SDS011;16578;53.266;7.920;2022-12-20T00:43:06;6.32;;;5.28;;
29662;SDS011;16578;53.266;7.920;2022-12-20T00:45:32;6.85;;;5.15;;
29662;SDS011;16578;53.266;7.920;2022-12-20T00:47:57;8.80;;;5.85;;
29662;SDS011;16578;53.266;7.920;2022-12-20T00:50:23;8.20;;;5.95;;
29662;SDS011;16578;53.266;7.920;2022-12-20T00:52:48;8.43;;;6.20;;
29662;SDS011;16578;53.266;7.920;2022-12-20T00:55:14;6.47;;;5.38;;
29662;SDS011;16578;53.266;7.920;2022-12-20T00:57:39;8.77;;;5.90;;
29662;SDS011;16578;53.266;7.920;2022-12-20T01:00:05;7.05;;;5.20;;
29662;SDS011;16578;53.266;7.920;2022-12-20T01:02:31;7.22;;;5.35;;
29662;SDS011;16578;53.266;7.920;2022-12-20T01:04:57;6.88;;;5.47;;
29662;SDS011;16578;53.266;7.920;2022-12-20T01:07:22;7.05;;;4.93;;
29662;SDS011;16578;53.266;7.920;2022-12-20T01:09:48;7.15;;;4.78;;
29662;SDS011;16578;53.266;7.920;2022-12-20T01:12:14;7.05;;;4.82;;
29662;SDS011;16578;53.266;7.920;2022-12-20T01:14:40;7.18;;;5.32;;
29662;SDS011;16578;53.266;7.920;2022-12-20T01:17:06;8.88;;;5.25;;
29662;SDS011;16578;53.266;7.920;2022-12-20T01:19:31;7.57;;;5.20;;
29662;SDS011;16578;53.266;7.920;2022-12-20T01:21:57;6.75;;;4.93;;
29662;SDS011;16578;53.266;7.920;2022-12-20T01:24:22;6.63;;;5.05;;
29662;SDS011;16578;53.266;7.920;2022-12-20T01:26:48;6.30;;;4.78;;
29662;SDS011;16578;53.266;7.920;2022-12-20T01:29:13;7.43;;;5.40;;
29662;SDS011;16578;53.266;7.920;2022-12-20T01:31:39;8.75;;;5.47;;
29662;SDS011;16578;53.266;7.920;2022-12-20T01:34:05;6.93;;;5.15;;
29662;SDS011;16578;53.266;7.920;2022-12-20T01:36:32;5.95;;;4.93;;
29662;SDS011;16578;53.266;7.920;2022-12-20T01:39:01;6.18;;;5.10;;
29662;SDS011;16578;53.266;7.920;2022-12-20T01:41:37;6.40;;;4.93;;
29662;SDS011;16578;53.266;7.920;2022-12-20T01:44:04;6.15;;;4.93;;
29662;SDS011;16578;53.266;7.920;2022-12-20T01:46:30;7.38;;;4.82;;
29662;SDS011;16578;53.266;7.920;2022-12-20T01:48:59;5.27;;;4.50;;
29662;SDS011;16578;53.266;7.920;2022-12-20T01:51:39;6.00;;;4.88;;
29662;SDS011;16578;53.266;7.920;2022-12-20T01:56:43;8.18;;;4.95;;
29662;SDS011;16578;53.266;7.920;2022-12-20T01:59:14;6.78;;;4.18;;
29662;SDS011;16578;53.266;7.920;2022-12-20T02:01:41;5.78;;;4.32;;
29662;SDS011;16578;53.266;7.920;2022-12-20T02:04:08;4.73;;;4.23;;
29662;SDS011;16578;53.266;7.920;2022-12-20T02:06:34;7.75;;;4.78;;
29662;SDS011;16578;53.266;7.920;2022-12-20T02:08:59;5.15;;;4.30;;
29662;SDS011;16578;53.266;7.920;2022-12-20T02:25:25;6.28;;;4.03;;
29662;SDS011;16578;53.266;7.920;2022-12-20T02:30:41;5.72;;;4.22;;
29662;SDS011;16578;53.266;7.920;2022-12-20T02:35:37;4.93;;;4.00;;
29662;SDS011;16578;53.266;7.920;2022-12-20T02:38:23;8.15;;;4.50;;
29662;SDS011;16578;53.266;7.920;2022-12-20T02:40:58;5.28;;;4.20;;
29662;SDS011;16578;53.266;7.920;2022-12-20T02:43:36;6.47;;;4.75;;
29662;SDS011;16578;53.266;7.920;2022-12-20T02:46:23;6.20;;;4.35;;
29662;SDS011;16578;53.266;7.920;2022-12-20T02:48:50;5.13;;;4.35;;
29662;SDS011;16578;53.266;7.920;2022-12-20T02:51:20;5.63;;;4.30;;
29662;SDS011;16578;53.266;7.920;2022-12-20T02:53:47;5.38;;;3.97;;
29662;SDS011;16578;53.266;7.920;2022-12-20T02:56:21;5.05;;;4.22;;
29662;SDS011;16578;53.266;7.920;2022-12-20T02:58:57;4.65;;;3.70;;
29662;SDS011;16578;53.266;7.920;2022-12-20T03:01:30;5.28;;;4.18;;
29662;SDS011;16578;53.266;7.920;2022-12-20T03:03:58;5.40;;;4.22;;
29662;SDS011;16578;53.266;7.920;2022-12-20T03:06:25;7.47;;;4.07;;
29662;SDS011;16578;53.266;7.920;2022-12-20T03:08:51;8.35;;;4.50;;
29662;SDS011;16578;53.266;7.920;2022-12-20T03:11:16;5.80;;;4.05;;
29662;SDS011;16578;53.266;7.920;2022-12-20T03:13:44;5.15;;;4.32;;
29662;SDS011;16578;53.266;7.920;2022-12-20T03:16:09;8.15;;;4.03;;
29662;SDS011;16578;53.266;7.920;2022-12-20T03:18:35;6.00;;;4.75;;
29662;SDS011;16578;53.266;7.920;2022-12-20T03:21:01;7.65;;;4.15;;
29662;SDS011;16578;53.266;7.920;2022-12-20T03:23:26;7.28;;;4.50;;
29662;SDS011;16578;53.266;7.920;2022-12-20T03:25:52;5.40;;;4.22;;
29662;SDS011;16578;53.266;7.920;2022-12-20T03:28:17;8.38;;;4.53;;
29662;SDS011;16578;53.266;7.920;2022-12-20T03:30:43;5.30;;;4.30;;
29662;SDS011;16578;53.266;7.920;2022-12-20T03:33:09;4.78;;;4.05;;
29662;SDS011;16578;53.266;7.920;2022-12-20T03:35:35;5.13;;;4.05;;
29662;SDS011;16578;53.266;7.920;2022-12-20T03:38:01;6.13;;;4.03;;
29662;SDS011;16578;53.266;7.920;2022-12-20T03:40:26;4.72;;;4.05;;
29662;SDS011;16578;53.266;7.920;2022-12-20T03:42:52;6.78;;;4.43;;
29662;SDS011;16578;53.266;7.920;2022-12-20T03:45:17;5.72;;;4.55;;
29662;SDS011;16578;53.266;7.920;2022-12-20T03:47:43;6.35;;;4.28;;
29662;SDS011;16578;53.266;7.920;2022-12-20T03:50:09;5.93;;;4.25;;
29662;SDS011;16578;53.266;7.920;2022-12-20T03:52:34;5.53;;;3.67;;
29662;SDS011;16578;53.266;7.920;2022-12-20T03:55:00;5.32;;;4.00;;
29662;SDS011;16578;53.266;7.920;2022-12-20T03:57:26;6.28;;;4.00;;
29662;SDS011;16578;53.266;7.920;2022-12-20T03:59:51;4.57;;;3.72;;
29662;SDS011;16578;53.266;7.920;2022-12-20T04:02:18;5.72;;;3.55;;
29662;SDS011;16578;53.266;7.920;2022-12-20T04:04:44;4.90;;;3.33;;
29662;SDS011;16578;53.266;7.920;2022-12-20T04:07:09;5.75;;;4.30;;
29662;SDS011;16578;53.266;7.920;2022-12-20T04:09:35;5.25;;;4.00;;
29662;SDS011;16578;53.266;7.920;2022-12-20T04:12:00;5.18;;;3.90;;
29662;SDS011;16578;53.266;7.920;2022-12-20T04:14:26;4.38;;;3.85;;
29662;SDS011;16578;53.266;7.920;2022-12-20T04:16:51;5.35;;;3.97;;
29662;SDS011;16578;53.266;7.920;2022-12-20T04:19:17;5.28;;;4.03;;
29662;SDS011;16578;53.266;7.920;2022-12-20T04:21:42;4.95;;;3.58;;
29662;SDS011;16578;53.266;7.920;2022-12-20T04:24:08;5.90;;;3.88;;
29662;SDS011;16578;53.266;7.920;2022-12-20T04:26:34;4.75;;;3.75;;
29662;SDS011;16578;53.266;7.920;2022-12-20T04:29:00;5.05;;;4.32;;
29662;SDS011;16578;53.266;7.920;2022-12-20T04:31:25;7.20;;;4.60;;
29662;SDS011;16578;53.266;7.920;2022-12-20T04:33:51;5.10;;;3.72;;
29662;SDS011;16578;53.266;7.920;2022-12-20T04:36:17;6.88;;;4.13;;
29662;SDS011;16578;53.266;7.920;2022-12-20T04:38:42;6.57;;;4.30;;
29662;SDS011;16578;53.266;7.920;2022-12-20T04:41:08;4.68;;;4.18;;
29662;SDS011;16578;53.266;7.920;2022-12-20T04:43:33;6.20;;;3.95;;
29662;SDS011;16578;53.266;7.920;2022-12-20T04:45:59;4.53;;;4.10;;
29662;SDS011;16578;53.266;7.920;2022-12-20T04:48:26;6.28;;;4.07;;
29662;SDS011;16578;53.266;7.920;2022-12-20T04:50:53;4.85;;;4.20;;
29662;SDS011;16578;53.266;7.920;2022-12-20T04:53:20;8.32;;;4.10;;
29662;SDS011;16578;53.266;7.920;2022-12-20T04:56:04;5.05;;;3.42;;
29662;SDS011;16578;53.266;7.920;2022-12-20T04:58:30;8.05;;;4.53;;
29662;SDS011;16578;53.266;7.920;2022-12-20T05:00:56;6.85;;;4.43;;
29662;SDS011;16578;53.266;7.920;2022-12-20T05:03:22;5.43;;;3.88;;
29662;SDS011;16578;53.266;7.920;2022-12-20T05:05:48;8.32;;;4.47;;
29662;SDS011;16578;53.266;7.920;2022-12-20T05:08:14;5.68;;;4.20;;
29662;SDS011;16578;53.266;7.920;2022-12-20T05:10:40;4.72;;;4.00;;
29662;SDS011;16578;53.266;7.920;2022-12-20T05:13:06;5.88;;;4.68;;
29662;SDS011;16578;53.266;7.920;2022-12-20T05:15:31;5.00;;;3.97;;
29662;SDS011;16578;53.266;7.920;2022-12-20T05:17:57;4.05;;;3.65;;
29662;SDS011;16578;53.266;7.920;2022-12-20T05:20:24;4.63;;;3.88;;
29662;SDS011;16578;53.266;7.920;2022-12-20T05:22:51;8.23;;;4.28;;
29662;SDS011;16578;53.266;7.920;2022-12-20T05:25:37;6.55;;;4.43;;
29662;SDS011;16578;53.266;7.920;2022-12-20T05:28:33;6.68;;;4.10;;
29662;SDS011;16578;53.266;7.920;2022-12-20T05:30:59;5.15;;;3.97;;
29662;SDS011;16578;53.266;7.920;2022-12-20T05:33:26;4.93;;;3.60;;
29662;SDS011;16578;53.266;7.920;2022-12-20T05:35:51;6.30;;;3.40;;
29662;SDS011;16578;53.266;7.920;2022-12-20T05:38:17;8.05;;;4.60;;
29662;SDS011;16578;53.266;7.920;2022-12-20T05:40:45;6.68;;;4.20;;
29662;SDS011;16578;53.266;7.920;2022-12-20T05:45:37;6.05;;;3.42;;
29662;SDS011;16578;53.266;7.920;2022-12-20T05:48:03;7.97;;;4.50;;
29662;SDS011;16578;53.266;7.920;2022-12-20T05:50:28;5.88;;;4.70;;
29662;SDS011;16578;53.266;7.920;2022-12-20T05:52:54;6.03;;;4.10;;
29662;SDS011;16578;53.266;7.920;2022-12-20T05:55:19;4.88;;;4.40;;
29662;SDS011;16578;53.266;7.920;2022-12-20T05:57:45;7.60;;;4.28;;
29662;SDS011;16578;53.266;7.920;2022-12-20T06:00:11;8.13;;;4.55;;
29662;SDS011;16578;53.266;7.920;2022-12-20T06:02:37;6.57;;;5.05;;
29662;SDS011;16578;53.266;7.920;2022-12-20T06:05:02;5.32;;;4.80;;
29662;SDS011;16578;53.266;7.920;2022-12-20T06:07:28;4.63;;;4.10;;
29662;SDS011;16578;53.266;7.920;2022-12-20T06:09:55;5.50;;;5.00;;
29662;SDS011;16578;53.266;7.920;2022-12-20T06:12:20;5.72;;;5.13;;
29662;SDS011;16578;53.266;7.920;2022-12-20T06:14:47;6.40;;;5.03;;
29662;SDS011;16578;53.266;7.920;2022-12-20T06:17:12;7.22;;;4.97;;
29662;SDS011;16578;53.266;7.920;2022-12-20T06:19:38;5.05;;;4.55;;
29662;SDS011;16578;53.266;7.920;2022-12-20T06:22:07;5.70;;;4.60;;
29662;SDS011;16578;53.266;7.920;2022-12-20T06:24:33;6.38;;;4.75;;
29662;SDS011;16578;53.266;7.920;2022-12-20T06:27:00;6.65;;;4.60;;
29662;SDS011;16578;53.266;7.920;2022-12-20T06:29:26;5.72;;;4.75;;
29662;SDS011;16578;53.266;7.920;2022-12-20T06:31:52;7.25;;;4.88;;
29662;SDS011;16578;53.266;7.920;2022-12-20T06:34:18;7.93;;;5.47;;
29662;SDS011;16578;53.266;7.920;2022-12-20T06:36:44;7.22;;;5.25;;
29662;SDS011;16578;53.266;7.920;2022-12-20T06:39:10;5.82;;;4.55;;
29662;SDS011;16578;53.266;7.920;2022-12-20T06:41:35;7.13;;;5.13;;
29662;SDS011;16578;53.266;7.920;2022-12-20T06:44:01;7.63;;;5.55;;
29662;SDS011;16578;53.266;7.920;2022-12-20T06:46:27;7.15;;;5.30;;
29662;SDS011;16578;53.266;7.920;2022-12-20T06:48:54;6.40;;;5.63;;
29662;SDS011;16578;53.266;7.920;2022-12-20T06:51:20;5.88;;;4.68;;
29662;SDS011;16578;53.266;7.920;2022-12-20T06:53:46;7.55;;;5.15;;
29662;SDS011;16578;53.266;7.920;2022-12-20T06:56:11;7.90;;;5.60;;
29662;SDS011;16578;53.266;7.920;2022-12-20T06:58:37;5.97;;;5.25;;
29662;SDS011;16578;53.266;7.920;2022-12-20T07:01:02;8.15;;;5.68;;
29662;SDS011;16578;53.266;7.920;2022-12-20T07:03:28;6.32;;;5.35;;
29662;SDS011;16578;53.266;7.920;2022-12-20T07:05:53;7.25;;;5.80;;
29662;SDS011;16578;53.266;7.920;2022-12-20T07:08:22;6.95;;;5.72;;
29662;SDS011;16578;53.266;7.920;2022-12-20T07:10:49;6.82;;;5.40;;
29662;SDS011;16578;53.266;7.920;2022-12-20T07:13:16;6.00;;;5.20;;
29662;SDS011;16578;53.266;7.920;2022-12-20T07:15:42;7.85;;;5.82;;
29662;SDS011;16578;53.266;7.920;2022-12-20T07:18:08;8.70;;;6.35;;
29662;SDS011;16578;53.266;7.920;2022-12-20T07:20:34;6.80;;;5.50;;
29662;SDS011;16578;53.266;7.920;2022-12-20T07:23:00;5.95;;;5.28;;
29662;SDS011;16578;53.266;7.920;2022-12-20T07:25:25;7.47;;;5.22;;
29662;SDS011;16578;53.266;7.920;2022-12-20T07:27:51;7.00;;;5.60;;
29662;SDS011;16578;53.266;7.920;2022-12-20T07:30:17;8.32;;;6.03;;
29662;SDS011;16578;53.266;7.920;2022-12-20T07:32:44;7.63;;;5.75;;
29662;SDS011;16578;53.266;7.920;2022-12-20T07:35:11;6.85;;;5.70;;
29662;SDS011;16578;53.266;7.920;2022-12-20T07:37:37;7.38;;;4.97;;
29662;SDS011;16578;53.266;7.920;2022-12-20T07:40:03;5.78;;;5.20;;
29662;SDS011;16578;53.266;7.920;2022-12-20T07:42:29;7.05;;;5.75;;
29662;SDS011;16578;53.266;7.920;2022-12-20T07:44:55;8.38;;;5.93;;
29662;SDS011;16578;53.266;7.920;2022-12-20T07:47:20;6.55;;;5.70;;
29662;SDS011;16578;53.266;7.920;2022-12-20T07:49:46;7.40;;;5.82;;
29662;SDS011;16578;53.266;7.920;2022-12-20T07:52:13;8.23;;;5.63;;
29662;SDS011;16578;53.266;7.920;2022-12-20T07:54:41;7.13;;;5.32;;
29662;SDS011;16578;53.266;7.920;2022-12-20T07:57:18;5.97;;;5.38;;
29662;SDS011;16578;53.266;7.920;2022-12-20T07:59:50;6.65;;;5.35;;
29662;SDS011;16578;53.266;7.920;2022-12-20T08:02:20;6.60;;;5.70;;
29662;SDS011;16578;53.266;7.920;2022-12-20T08:04:50;6.57;;;5.53;;
29662;SDS011;16578;53.266;7.920;2022-12-20T08:07:17;10.82;;;6.35;;
29662;SDS011;16578;53.266;7.920;2022-12-20T08:09:43;7.05;;;6.05;;
29662;SDS011;16578;53.266;7.920;2022-12-20T08:12:11;6.15;;;5.50;;
29662;SDS011;16578;53.266;7.920;2022-12-20T08:14:40;6.50;;;5.80;;
29662;SDS011;16578;53.266;7.920;2022-12-20T08:17:06;5.97;;;5.32;;
29662;SDS011;16578;53.266;7.920;2022-12-20T08:19:31;7.55;;;5.18;;
29662;SDS011;16578;53.266;7.920;2022-12-20T08:21:57;8.50;;;6.03;;
29662;SDS011;16578;53.266;7.920;2022-12-20T08:24:23;7.07;;;5.82;;
29662;SDS011;16578;53.266;7.920;2022-12-20T08:26:48;8.13;;;5.88;;
29662;SDS011;16578;53.266;7.920;2022-12-20T08:29:14;7.13;;;6.15;;
29662;SDS011;16578;53.266;7.920;2022-12-20T08:31:40;8.23;;;5.80;;
29662;SDS011;16578;53.266;7.920;2022-12-20T08:34:06;9.43;;;6.40;;
29662;SDS011;16578;53.266;7.920;2022-12-20T08:36:32;6.07;;;5.50;;
29662;SDS011;16578;53.266;7.920;2022-12-20T08:38:57;7.47;;;6.68;;
29662;SDS011;16578;53.266;7.920;2022-12-20T08:41:27;7.93;;;6.03;;
29662;SDS011;16578;53.266;7.920;2022-12-20T08:43:52;6.70;;;6.00;;
29662;SDS011;16578;53.266;7.920;2022-12-20T08:46:18;9.50;;;6.60;;
29662;SDS011;16578;53.266;7.920;2022-12-20T08:48:43;8.75;;;6.50;;
29662;SDS011;16578;53.266;7.920;2022-12-20T08:51:09;7.85;;;5.47;;
29662;SDS011;16578;53.266;7.920;2022-12-20T08:53:35;7.55;;;5.97;;
29662;SDS011;16578;53.266;7.920;2022-12-20T08:56:03;6.57;;;5.50;;
29662;SDS011;16578;53.266;7.920;2022-12-20T08:58:31;5.57;;;4.70;;
29662;SDS011;16578;53.266;7.920;2022-12-20T09:00:58;6.88;;;5.82;;
29662;SDS011;16578;53.266;7.920;2022-12-20T09:03:25;8.52;;;7.10;;
29662;SDS011;16578;53.266;7.920;2022-12-20T09:05:51;8.88;;;7.72;;
29662;SDS011;16578;53.266;7.920;2022-12-20T09:08:16;8.93;;;7.20;;
29662;SDS011;16578;53.266;7.920;2022-12-20T09:10:42;8.77;;;7.57;;
29662;SDS011;16578;53.266;7.920;2022-12-20T09:13:08;8.07;;;7.03;;
29662;SDS011;16578;53.266;7.920;2022-12-20T09:15:35;11.90;;;6.88;;
29662;SDS011;16578;53.266;7.920;2022-12-20T09:18:00;7.95;;;6.35;;
29662;SDS011;16578;53.266;7.920;2022-12-20T09:20:27;7.57;;;6.53;;
29662;SDS011;16578;53.266;7.920;2022-12-20T09:22:52;8.60;;;6.22;;
29662;SDS011;16578;53.266;7.920;2022-12-20T09:25:18;5.78;;;5.18;;
29662;SDS011;16578;53.266;7.920;2022-12-20T09:27:44;6.57;;;5.70;;
29662;SDS011;16578;53.266;7.920;2022-12-20T09:30:09;6.50;;;5.28;;
29662;SDS011;16578;53.266;7.920;2022-12-20T09:32:35;7.57;;;5.50;;
29662;SDS011;16578;53.266;7.920;2022-12-20T09:35:01;7.28;;;5.43;;
29662;SDS011;16578;53.266;7.920;2022-12-20T09:37:30;8.18;;;5.88;;
29662;SDS011;16578;53.266;7.920;2022-12-20T09:39:57;7.43;;;5.70;;
29662;SDS011;16578;53.266;7.920;2022-12-20T09:42:26;8.43;;;5.93;;
29662;SDS011;16578;53.266;7.920;2022-12-20T09:44:55;7.20;;;5.57;;
29662;SDS011;16578;53.266;7.920;2022-12-20T09:47:33;7.28;;;5.20;;
29662;SDS011;16578;53.266;7.920;2022-12-20T09:50:00;6.28;;;4.90;;
29662;SDS011;16578;53.266;7.920;2022-12-20T09:52:50;7.93;;;5.90;;
29662;SDS011;16578;53.266;7.920;2022-12-20T09:55:26;11.07;;;7.63;;
29662;SDS011;16578;53.266;7.920;2022-12-20T10:01:03;8.65;;;6.30;;
29662;SDS011;16578;53.266;7.920;2022-12-20T10:03:45;7.20;;;5.78;;
29662;SDS011;16578;53.266;7.920;2022-12-20T10:08:58;8.82;;;6.35;;
29662;SDS011;16578;53.266;7.920;2022-12-20T10:16:39;7.00;;;4.63;;
29662;SDS011;16578;53.266;7.920;2022-12-20T10:22:01;7.97;;;4.88;;
29662;SDS011;16578;53.266;7.920;2022-12-20T10:24:31;6.18;;;4.43;;
29662;SDS011;16578;53.266;7.920;2022-12-20T10:27:16;6.43;;;4.95;;
29662;SDS011;16578;53.266;7.920;2022-12-20T10:29:44;5.85;;;4.60;;
29662;SDS011;16578;53.266;7.920;2022-12-20T10:32:13;8.13;;;4.70;;
29662;SDS011;16578;53.266;7.920;2022-12-20T10:34:44;7.85;;;4.80;;
29662;SDS011;16578;53.266;7.920;2022-12-20T10:37:25;10.63;;;5.07;;
29662;SDS011;16578;53.266;7.920;2022-12-20T10:39:50;9.25;;;6.30;;
29662;SDS011;16578;53.266;7.920;2022-12-20T10:44:51;5.93;;;4.93;;
29662;SDS011;16578;53.266;7.920;2022-12-20T10:50:17;5.30;;;4.10;;
29662;SDS011;16578;53.266;7.920;2022-12-20T10:52:44;5.28;;;4.03;;
29662;SDS011;16578;53.266;7.920;2022-12-20T10:55:33;5.18;;;4.25;;
29662;SDS011;16578;53.266;7.920;2022-12-20T10:58:03;5.97;;;4.03;;
29662;SDS011;16578;53.266;7.920;2022-12-20T11:00:35;5.07;;;4.13;;
29662;SDS011;16578;53.266;7.920;2022-12-20T11:03:23;5.22;;;4.28;;
29662;SDS011;16578;53.266;7.920;2022-12-20T11:05:55;4.93;;;4.03;;
29662;SDS011;16578;53.266;7.920;2022-12-20T11:08:27;5.10;;;4.60;;
29662;SDS011;16578;53.266;7.920;2022-12-20T11:11:11;8.80;;;4.70;;
29662;SDS011;16578;53.266;7.920;2022-12-20T11:13:40;5.05;;;4.13;;
29662;SDS011;16578;53.266;7.920;2022-12-20T11:16:09;6.22;;;4.47;;
29662;SDS011;16578;53.266;7.920;2022-12-20T11:27:35;5.63;;;4.53;;
29662;SDS011;16578;53.266;7.920;2022-12-20T11:33:09;7.15;;;4.78;;
29662;SDS011;16578;53.266;7.920;2022-12-20T11:35:50;5.43;;;4.80;;
29662;SDS011;16578;53.266;7.920;2022-12-20T11:38:39;6.95;;;3.97;;
29662;SDS011;16578;53.266;7.920;2022-12-20T11:41:09;9.63;;;4.18;;
29662;SDS011;16578;53.266;7.920;2022-12-20T11:46:50;5.45;;;4.28;;
29662;SDS011;16578;53.266;7.920;2022-12-20T11:52:14;8.27;;;4.20;;
29662;SDS011;16578;53.266;7.920;2022-12-20T11:57:42;6.10;;;4.45;;
29662;SDS011;16578;53.266;7.920;2022-12-20T12:00:15;7.80;;;4.68;;
29662;SDS011;16578;53.266;7.920;2022-12-20T12:02:54;6.72;;;4.60;;
29662;SDS011;16578;53.266;7.920;2022-12-20T12:05:28;5.88;;;3.92;;
29662;SDS011;16578;53.266;7.920;2022-12-20T12:08:09;4.88;;;4.30;;
29662;SDS011;16578;53.266;7.920;2022-12-20T12:10:42;8.52;;;4.63;;
29662;SDS011;16578;53.266;7.920;2022-12-20T12:13:20;7.07;;;4.68;;
29662;SDS011;16578;53.266;7.920;2022-12-20T12:16:05;8.40;;;4.32;;
29662;SDS011;16578;53.266;7.920;2022-12-20T12:18:34;5.05;;;4.03;;
29662;SDS011;16578;53.266;7.920;2022-12-20T12:26:49;4.72;;;3.75;;
29662;SDS011;16578;53.266;7.920;2022-12-20T12:29:00;5.40;;;3.67;;
29662;SDS011;16578;53.266;7.920;2022-12-20T12:45:47;4.85;;;3.00;;
29662;SDS011;16578;53.266;7.920;2022-12-20T12:48:18;4.40;;;3.05;;
29662;SDS011;16578;53.266;7.920;2022-12-20T12:51:06;6.35;;;3.38;;
29662;SDS011;16578;53.266;7.920;2022-12-20T12:53:42;9.15;;;5.07;;
29662;SDS011;16578;53.266;7.920;2022-12-20T13:10:54;7.80;;;3.90;;
29662;SDS011;16578;53.266;7.920;2022-12-20T13:12:59;4.75;;;3.72;;
29662;SDS011;16578;53.266;7.920;2022-12-20T13:17:55;4.05;;;3.25;;
29662;SDS011;16578;53.266;7.920;2022-12-20T13:20:26;5.00;;;3.15;;
29662;SDS011;16578;53.266;7.920;2022-12-20T13:25:32;3.90;;;2.88;;
29662;SDS011;16578;53.266;7.920;2022-12-20T13:30:41;5.50;;;3.05;;
29662;SDS011;16578;53.266;7.920;2022-12-20T13:33:20;4.13;;;3.08;;
29662;SDS011;16578;53.266;7.920;2022-12-20T13:36:02;3.35;;;2.67;;
29662;SDS011;16578;53.266;7.920;2022-12-20T13:38:49;4.55;;;2.58;;
29662;SDS011;16578;53.266;7.920;2022-12-20T13:43:59;3.70;;;2.78;;
29662;SDS011;16578;53.266;7.920;2022-12-20T13:46:53;4.15;;;2.97;;
29662;SDS011;16578;53.266;7.920;2022-12-20T13:49:39;4.03;;;2.90;;
29662;SDS011;16578;53.266;7.920;2022-12-20T13:54:57;6.55;;;3.38;;
29662;SDS011;16578;53.266;7.920;2022-12-20T13:57:25;5.40;;;3.30;;
29662;SDS011;16578;53.266;7.920;2022-12-20T13:59:55;5.15;;;3.67;;
29662;SDS011;16578;53.266;7.920;2022-12-20T14:02:25;7.97;;;3.53;;
29662;SDS011;16578;53.266;7.920;2022-12-20T14:04:58;4.18;;;3.60;;
29662;SDS011;16578;53.266;7.920;2022-12-20T14:07:26;4.10;;;3.70;;
29662;SDS011;16578;53.266;7.920;2022-12-20T14:09:54;4.80;;;3.80;;
29662;SDS011;16578;53.266;7.920;2022-12-20T14:14:48;5.63;;;3.50;;
29662;SDS011;16578;53.266;7.920;2022-12-20T14:17:15;4.93;;;3.77;;
29662;SDS011;16578;53.266;7.920;2022-12-20T14:19:46;3.78;;;3.40;;
29662;SDS011;16578;53.266;7.920;2022-12-20T14:22:11;4.35;;;3.97;;
29662;SDS011;16578;53.266;7.920;2022-12-20T14:24:38;4.60;;;3.50;;
29662;SDS011;16578;53.266;7.920;2022-12-20T14:27:08;5.60;;;3.67;;
29662;SDS011;16578;53.266;7.920;2022-12-20T14:29:36;5.32;;;4.68;;
29662;SDS011;16578;53.266;7.920;2022-12-20T14:32:03;5.85;;;4.82;;
29662;SDS011;16578;53.266;7.920;2022-12-20T14:34:30;6.32;;;4.72;;
29662;SDS011;16578;53.266;7.920;2022-12-20T14:42:23;4.23;;;3.80;;
29662;SDS011;16578;53.266;7.920;2022-12-20T14:45:01;5.07;;;3.80;;
29662;SDS011;16578;53.266;7.920;2022-12-20T14:47:47;6.15;;;4.07;;
29662;SDS011;16578;53.266;7.920;2022-12-20T14:50:37;6.60;;;4.30;;
29662;SDS011;16578;53.266;7.920;2022-12-20T14:53:10;4.93;;;4.15;;
29662;SDS011;16578;53.266;7.920;2022-12-20T14:55:44;4.18;;;3.85;;
29662;SDS011;16578;53.266;7.920;2022-12-20T14:58:26;4.55;;;4.15;;
29662;SDS011;16578;53.266;7.920;2022-12-20T15:00:58;5.40;;;3.40;;
29662;SDS011;16578;53.266;7.920;2022-12-20T15:03:24;6.00;;;3.78;;
29662;SDS011;16578;53.266;7.920;2022-12-20T15:05:51;4.60;;;4.20;;
29662;SDS011;16578;53.266;7.920;2022-12-20T15:13:18;4.45;;;4.07;;
29662;SDS011;16578;53.266;7.920;2022-12-20T15:15:46;4.40;;;3.58;;
29662;SDS011;16578;53.266;7.920;2022-12-20T15:18:16;4.68;;;3.85;;
29662;SDS011;16578;53.266;7.920;2022-12-20T15:20:43;5.07;;;4.13;;
29662;SDS011;16578;53.266;7.920;2022-12-20T15:23:19;5.85;;;4.38;;
29662;SDS011;16578;53.266;7.920;2022-12-20T15:25:46;4.72;;;4.32;;
29662;SDS011;16578;53.266;7.920;2022-12-20T15:28:13;4.60;;;4.05;;
29662;SDS011;16578;53.266;7.920;2022-12-20T15:30:40;7.97;;;4.20;;
29662;SDS011;16578;53.266;7.920;2022-12-20T15:33:05;4.82;;;4.43;;
29662;SDS011;16578;53.266;7.920;2022-12-20T15:35:38;4.55;;;4.00;;
29662;SDS011;16578;53.266;7.920;2022-12-20T15:38:04;5.68;;;4.38;;
29662;SDS011;16578;53.266;7.920;2022-12-20T15:40:30;5.88;;;5.28;;
29662;SDS011;16578;53.266;7.920;2022-12-20T15:43:01;7.22;;;5.97;;
29662;SDS011;16578;53.266;7.920;2022-12-20T15:45:27;5.43;;;4.93;;
29662;SDS011;16578;53.266;7.920;2022-12-20T15:47:52;6.57;;;5.05;;
29662;SDS011;16578;53.266;7.920;2022-12-20T15:50:18;5.13;;;4.63;;
29662;SDS011;16578;53.266;7.920;2022-12-20T15:52:44;5.85;;;5.20;;
29662;SDS011;16578;53.266;7.920;2022-12-20T15:55:09;7.68;;;5.65;;
29662;SDS011;16578;53.266;7.920;2022-12-20T15:57:35;6.72;;;5.30;;
29662;SDS011;16578;53.266;7.920;2022-12-20T16:00:01;6.53;;;5.88;;
29662;SDS011;16578;53.266;7.920;2022-12-20T16:02:28;7.80;;;5.60;;
29662;SDS011;16578;53.266;7.920;2022-12-20T16:04:54;7.05;;;6.03;;
29662;SDS011;16578;53.266;7.920;2022-12-20T16:07:20;6.45;;;5.38;;
29662;SDS011;16578;53.266;7.920;2022-12-20T16:09:47;6.47;;;5.22;;
29662;SDS011;16578;53.266;7.920;2022-12-20T16:12:13;6.75;;;5.57;;
29662;SDS011;16578;53.266;7.920;2022-12-20T16:14:44;5.95;;;5.35;;
29662;SDS011;16578;53.266;7.920;2022-12-20T16:17:13;6.18;;;5.57;;
29662;SDS011;16578;53.266;7.920;2022-12-20T16:19:39;6.15;;;5.38;;
29662;SDS011;16578;53.266;7.920;2022-12-20T16:22:15;5.53;;;5.07;;
29662;SDS011;16578;53.266;7.920;2022-12-20T16:24:46;5.10;;;4.13;;
29662;SDS011;16578;53.266;7.920;2022-12-20T16:27:12;7.15;;;5.10;;
29662;SDS011;16578;53.266;7.920;2022-12-20T16:29:38;7.65;;;5.88;;
29662;SDS011;16578;53.266;7.920;2022-12-20T16:32:11;6.70;;;6.07;;
29662;SDS011;16578;53.266;7.920;2022-12-20T16:34:41;6.57;;;5.88;;
29662;SDS011;16578;53.266;7.920;2022-12-20T16:37:07;6.40;;;5.78;;
29662;SDS011;16578;53.266;7.920;2022-12-20T16:39:32;7.68;;;6.25;;
29662;SDS011;16578;53.266;7.920;2022-12-20T16:41:58;10.95;;;6.15;;
29662;SDS011;16578;53.266;7.920;2022-12-20T16:44:25;6.60;;;5.97;;
29662;SDS011;16578;53.266;7.920;2022-12-20T16:46:51;6.50;;;6.00;;
29662;SDS011;16578;53.266;7.920;2022-12-20T16:49:16;8.90;;;6.28;;
29662;SDS011;16578;53.266;7.920;2022-12-20T16:51:43;6.70;;;6.10;;
29662;SDS011;16578;53.266;7.920;2022-12-20T16:54:17;6.77;;;4.63;;
29662;SDS011;16578;53.266;7.920;2022-12-20T16:56:44;6.15;;;5.55;;
29662;SDS011;16578;53.266;7.920;2022-12-20T16:59:15;6.55;;;5.90;;
29662;SDS011;16578;53.266;7.920;2022-12-20T17:01:41;6.80;;;6.10;;